^^
Grace C. Lehan Memorial Weather Station Historical Data
Daily Summary for June 21, 2022 Units:  Metric    English   Both
Daily Weekly Monthly Yearly
  High: Low: Average:
Temperature: 23.4 °C 13.6 °C 19.4 °C
Dew Point: 16.9 °C 10.8 °C 13.6 °C
Humidity: 86% 57.6% 70%
Wind Speed: 1.4km/h 0km/h 0km/h
Wind Gust: 8km/h - -
Wind- - WSW
Pressure: 1020.5 hPa 1017.8 hPa -
Precipitation: 0 mm    
 
 
Tabular Data for June 21, 2022
Time Temperature Dew Point Pressure Wind Wind Speed Wind Gust Humidity Rainfall Rate (Hourly) solar
00:04 18.8 °C 11.3 °C 1018.2 hPa Calm     62% 0 mm 0 W/m2
00:09 18.7 °C 11.5 °C 1018.2 hPa Calm   1.6 km/h 62.7% 0 mm 0 W/m2
00:14 18.7 °C 11.5 °C 1018.2 hPa Calm   1.6 km/h 63.1% 0 mm 0 W/m2
00:19 18.6 °C 11.6 °C 1018.2 hPa Calm   1.6 km/h 64% 0 mm 0 W/m2
00:24 18.4 °C 11.4 °C 1018.2 hPa Calm   1.6 km/h 63.7% 0 mm 0 W/m2
00:29 18.4 °C 11.3 °C 1018.2 hPa Calm   1.6 km/h 63.3% 0 mm 0 W/m2
00:34 18.3 °C 11.3 °C 1018.2 hPa Calm   1.6 km/h 63.5% 0 mm 0 W/m2
00:39 18.3 °C 11.4 °C 1018.2 hPa Calm     64% 0 mm 0 W/m2
00:44 18.3 °C 11.3 °C 1018.5 hPa Calm     64% 0 mm 0 W/m2
00:49 18.2 °C 11.3 °C 1018.5 hPa Calm     64% 0 mm 0 W/m2
00:54 18.2 °C 11.4 °C 1018.2 hPa Calm     64.6% 0 mm 0 W/m2
00:59 18.1 °C 11.7 °C 1018.2 hPa Calm     65.9% 0 mm 0 W/m2
01:04 18.1 °C 11.6 °C 1018.2 hPa Calm     66% 0 mm 0 W/m2
01:09 17.9 °C 11.5 °C 1018.2 hPa Calm     66% 0 mm 0 W/m2
01:14 17.9 °C 11.4 °C 1018.2 hPa Calm     66% 0 mm 0 W/m2
01:19 17.8 °C 11.6 °C 1017.8 hPa Calm     67% 0 mm 0 W/m2
01:24 17.7 °C 11.6 °C 1017.8 hPa Calm     67.5% 0 mm 0 W/m2
01:29 17.6 °C 11.7 °C 1017.8 hPa Calm     68.4% 0 mm 0 W/m2
01:34 17.5 °C 11.8 °C 1017.8 hPa Calm     69.3% 0 mm 0 W/m2
01:39 17.3 °C 11.7 °C 1017.8 hPa Calm     69.2% 0 mm 0 W/m2
01:44 17.2 °C 11.4 °C 1017.8 hPa Calm     68.5% 0 mm 0 W/m2
01:49 17.2 °C 11.4 °C 1017.8 hPa Calm     69% 0 mm 0 W/m2
01:54 17.1 °C 11.6 °C 1017.8 hPa Calm     70% 0 mm 0 W/m2
01:59 16.9 °C 11.4 °C 1017.8 hPa Calm     70% 0 mm 0 W/m2
02:04 16.9 °C 11.3 °C 1017.8 hPa Calm     69.8% 0 mm 0 W/m2
02:09 16.8 °C 11.5 °C 1018.2 hPa Calm     70.8% 0 mm 0 W/m2
02:14 16.8 °C 11.6 °C 1018.2 hPa Calm     71.2% 0 mm 0 W/m2
02:19 16.7 °C 11.6 °C 1018.2 hPa Calm     72% 0 mm 0 W/m2
02:24 16.6 °C 11.6 °C 1018.2 hPa Calm     72% 0 mm 0 W/m2
02:29 16.6 °C 11.5 °C 1018.2 hPa Calm     72% 0 mm 0 W/m2
02:34 16.6 °C 11.7 °C 1018.2 hPa Calm     73% 0 mm 0 W/m2
02:39 16.4 °C 11.8 °C 1018.2 hPa Calm     74.2% 0 mm 0 W/m2
02:44 16.3 °C 11.7 °C 1018.2 hPa Calm     74.1% 0 mm 0 W/m2
02:49 16.2 °C 11.8 °C 1018.2 hPa Calm     75% 0 mm 0 W/m2
02:54 16.1 °C 11.6 °C 1018.2 hPa Calm     75% 0 mm 0 W/m2
02:59 15.9 °C 11.5 °C 1018.2 hPa Calm     75% 0 mm 0 W/m2
03:04 15.8 °C 11.5 °C 1018.2 hPa Calm     75.5% 0 mm 0 W/m2
03:09 15.8 °C 11.6 °C 1018.2 hPa Calm     76% 0 mm 0 W/m2
03:14 15.7 °C 11.4 °C 1018.2 hPa Calm     75.9% 0 mm 0 W/m2
03:19 15.6 °C 11.3 °C 1017.8 hPa Calm     75.9% 0 mm 0 W/m2
03:24 15.5 °C 11.3 °C 1018.2 hPa Calm     76% 0 mm 0 W/m2
03:29 15.4 °C 11.2 °C 1018.2 hPa Calm     76% 0 mm 0 W/m2
03:34 15.3 °C 11.3 °C 1018.2 hPa Calm     76.5% 0 mm 0 W/m2
03:39 15.3 °C 11.3 °C 1018.2 hPa Calm     77% 0 mm 0 W/m2
03:44 15.2 °C 11.2 °C 1018.2 hPa Calm     77% 0 mm 0 W/m2
03:49 15.1 °C 11.2 °C 1018.2 hPa Calm     77.6% 0 mm 0 W/m2
03:54 14.9 °C 11.2 °C 1018.2 hPa Calm     78.1% 0 mm 0 W/m2
03:59 14.8 °C 11.2 °C 1018.5 hPa Calm     79% 0 mm 0 W/m2
04:00 14.8 °C 11.2 °C 1018.5 hPa Calm     79% 0 mm 0 W/m2
04:09 14.6 °C 11.2 °C 1018.5 hPa Calm     79.7% 0 mm 0 W/m2
04:14 14.5 °C 11.1 °C 1018.5 hPa Calm     80% 0 mm 0 W/m2
04:19 14.4 °C 11 °C 1018.5 hPa Calm     80% 0 mm 0 W/m2
04:24 14.3 °C 11.1 °C 1018.5 hPa Calm     80.9% 0 mm 0 W/m2
04:29 14.3 °C 11.1 °C 1018.5 hPa Calm     81% 0 mm 0 W/m2
04:34 14.2 °C 11.1 °C 1018.8 hPa Calm     81% 0 mm 0 W/m2
04:39 14.2 °C 11 °C 1018.5 hPa Calm     81% 0 mm 0 W/m2
04:44 14.2 °C 11 °C 1018.8 hPa Calm     81% 0 mm 0 W/m2
04:49 14.2 °C 10.9 °C 1018.8 hPa Calm     81% 0 mm 0 W/m2
04:54 14.1 °C 10.9 °C 1018.8 hPa Calm     81% 0 mm 0 W/m2
04:59 14.1 °C 10.9 °C 1018.8 hPa Calm     81% 0 mm 0 W/m2
05:04 14.1 °C 10.8 °C 1018.8 hPa Calm     81% 0 mm 0 W/m2
05:09 14 °C 10.8 °C 1018.8 hPa Calm     81% 0 mm 0 W/m2
05:14 13.9 °C 10.8 °C 1018.8 hPa Calm     81.5% 0 mm 5 W/m2
05:19 13.9 °C 10.8 °C 1018.8 hPa Calm     82% 0 mm 5 W/m2
05:24 13.8 °C 10.8 °C 1018.8 hPa Calm     82% 0 mm 9 W/m2
05:29 13.8 °C 10.8 °C 1018.8 hPa Calm     82.4% 0 mm 12 W/m2
05:34 13.8 °C 10.9 °C 1018.8 hPa Calm     83% 0 mm 12 W/m2
05:39 13.7 °C 10.9 °C 1018.8 hPa Calm     83% 0 mm 16 W/m2
05:44 13.7 °C 10.9 °C 1018.8 hPa Calm     83.3% 0 mm 21 W/m2
05:49 13.6 °C 10.9 °C 1019.2 hPa Calm     84% 0 mm 28 W/m2
05:54 13.6 °C 10.9 °C 1019.2 hPa Calm     84% 0 mm 40 W/m2
05:59 13.6 °C 11.1 °C 1019.2 hPa Calm     84.8% 0 mm 53 W/m2
06:04 13.6 °C 11.1 °C 1019.5 hPa Calm     85% 0 mm 62 W/m2
06:09 13.6 °C 11.2 °C 1019.5 hPa Calm     85.3% 0 mm 62 W/m2
06:14 13.7 °C 11.3 °C 1019.9 hPa Calm     86% 0 mm 56 W/m2
06:19 13.7 °C 11.4 °C 1019.9 hPa Calm     86% 0 mm 63 W/m2
06:24 13.8 °C 11.5 °C 1019.9 hPa Calm     86% 0 mm 62 W/m2
06:29 13.9 °C 11.6 °C 1019.9 hPa Calm     85.6% 0 mm 53 W/m2
06:34 14.1 °C 11.6 °C 1019.9 hPa Calm     85% 0 mm 51 W/m2
06:39 14.1 °C 11.5 °C 1019.9 hPa Calm   1.6 km/h 84.2% 0 mm 49 W/m2
06:44 14.2 °C 11.4 °C 1019.9 hPa Calm   1.6 km/h 83% 0 mm 53 W/m2
06:49 14.4 °C 11.4 °C 1019.9 hPa Calm   1.6 km/h 82.3% 0 mm 54 W/m2
06:54 14.5 °C 11.4 °C 1019.9 hPa Calm   1.6 km/h 82% 0 mm 65 W/m2
06:59 14.6 °C 11.4 °C 1019.9 hPa Calm   1.6 km/h 81.5% 0 mm 81 W/m2
07:04 14.7 °C 11.5 °C 1020.2 hPa Calm   1.6 km/h 81% 0 mm 105 W/m2
07:09 14.8 °C 11.6 °C 1020.2 hPa Calm     80.7% 0 mm 130 W/m2
07:14 15 °C 11.5 °C 1020.2 hPa Calm     79.6% 0 mm 139 W/m2
07:19 15.1 °C 11.4 °C 1020.2 hPa Calm     78.8% 0 mm 153 W/m2
07:24 15.3 °C 11.4 °C 1020.2 hPa Calm     77.5% 0 mm 155 W/m2
07:29 15.4 °C 11.4 °C 1020.2 hPa Calm     77% 0 mm 156 W/m2
07:34 15.6 °C 11.4 °C 1020.2 hPa ENE 0.3 km/h 4.8 km/h 76% 0 mm 178 W/m2
07:39 15.8 °C 11.6 °C 1020.5 hPa ENE 0.8 km/h 6.4 km/h 76% 0 mm 165 W/m2
07:44 15.9 °C 11.5 °C 1020.5 hPa ENE 1.4 km/h 6.4 km/h 75.2% 0 mm 169 W/m2
07:49 16.1 °C 11.6 °C 1020.5 hPa Calm   6.4 km/h 75% 0 mm 179 W/m2
07:54 16.1 °C 11.7 °C 1020.2 hPa Calm   6.4 km/h 75% 0 mm 209 W/m2
07:59 16.3 °C 11.7 °C 1020.2 hPa Calm   6.4 km/h 74.6% 0 mm 253 W/m2
08:00 16.3 °C 11.7 °C 1020.2 hPa Calm   6.4 km/h 74% 0 mm 200 W/m2
08:09 16.7 °C 12.4 °C 1020.2 hPa Calm     75.8% 0 mm 316 W/m2
08:14 17 °C 12.3 °C 1020.2 hPa ENE 0.2 km/h 3.2 km/h 73.7% 0 mm 241 W/m2
08:19 17.2 °C 12.3 °C 1020.2 hPa Calm   3.2 km/h 73% 0 mm 174 W/m2
08:24 17.3 °C 12.3 °C 1020.2 hPa ENE 0.2 km/h 3.2 km/h 72.8% 0 mm 206 W/m2
08:29 17.3 °C 12.2 °C 1020.2 hPa NE 0.3 km/h 3.2 km/h 72% 0 mm 308 W/m2
08:34 17.4 °C 12.4 °C 1020.2 hPa Calm   3.2 km/h 72.5% 0 mm 308 W/m2
08:39 17.7 °C 12.6 °C 1020.2 hPa NE 0.5 km/h 3.2 km/h 72.1% 0 mm 339 W/m2
08:44 17.9 °C 12.6 °C 1020.2 hPa NNE 1.3 km/h 8 km/h 71.2% 0 mm 367 W/m2
08:49 18.1 °C 12.5 °C 1020.2 hPa NNW 1 km/h 8 km/h 70.1% 0 mm 392 W/m2
08:54 18.2 °C 12.7 °C 1020.2 hPa NNW 0.3 km/h 8 km/h 70.4% 0 mm 434 W/m2
08:59 18.4 °C 13 °C 1019.9 hPa Calm   8 km/h 70.5% 0 mm 371 W/m2
09:04 18.7 °C 13.2 °C 1019.9 hPa Calm   8 km/h 70.4% 0 mm 462 W/m2
09:09 18.9 °C 13.1 °C 1019.9 hPa Calm     68.9% 0 mm 536 W/m2
09:14 19.2 °C 13.2 °C 1019.9 hPa Calm     68.1% 0 mm 536 W/m2
09:19 19.4 °C 13.3 °C 1019.9 hPa NNW 0.2 km/h 1.6 km/h 67.7% 0 mm 629 W/m2
09:24 19.8 °C 13.9 °C 1019.9 hPa NNW 0.3 km/h 3.2 km/h 68.5% 0 mm 629 W/m2
09:29 20.3 °C 13.7 °C 1019.9 hPa NNW 0.2 km/h 3.2 km/h 65.8% 0 mm 726 W/m2
09:34 20.6 °C 13.6 °C 1019.9 hPa NNW 0.2 km/h 3.2 km/h 64.6% 0 mm 726 W/m2
09:39 20.8 °C 13.4 °C 1019.9 hPa Calm   3.2 km/h 62.8% 0 mm 336 W/m2
09:44 20.9 °C 13.6 °C 1019.9 hPa Calm   3.2 km/h 62.8% 0 mm 281 W/m2
09:49 20.9 °C 13.3 °C 1019.9 hPa Calm   3.2 km/h 61.9% 0 mm 278 W/m2
09:54 20.8 °C 13.2 °C 1019.9 hPa NNW 0.2 km/h 3.2 km/h 61.7% 0 mm 257 W/m2
09:59 20.7 °C 13.1 °C 1019.9 hPa Calm   3.2 km/h 61.6% 0 mm 220 W/m2
10:04 20.7 °C 13.3 °C 1019.9 hPa Calm   3.2 km/h 62.8% 0 mm 174 W/m2
10:09 20.6 °C 13.2 °C 1019.9 hPa Calm     62.6% 0 mm 178 W/m2
10:14 20.6 °C 13.3 °C 1019.5 hPa Calm     63% 0 mm 186 W/m2
10:19 20.5 °C 13.3 °C 1019.5 hPa Calm     63.3% 0 mm 192 W/m2
10:24 20.5 °C 13.4 °C 1019.5 hPa Calm     64% 0 mm 192 W/m2
10:29 20.6 °C 13.8 °C 1019.5 hPa Calm     65% 0 mm 221 W/m2
10:34 20.5 °C 13.6 °C 1019.5 hPa Calm   1.6 km/h 64.4% 0 mm 243 W/m2
10:39 20.4 °C 13.4 °C 1019.5 hPa NNW 0.2 km/h 1.6 km/h 64.1% 0 mm 278 W/m2
10:44 20.4 °C 13.7 °C 1019.5 hPa Calm   1.6 km/h 65.1% 0 mm 309 W/m2
10:49 20.5 °C 13.9 °C 1019.5 hPa Calm   1.6 km/h 66% 0 mm 385 W/m2
10:54 20.6 °C 13.8 °C 1019.5 hPa Calm   1.6 km/h 65.3% 0 mm 550 W/m2
10:59 20.7 °C 14.2 °C 1019.5 hPa Calm   1.6 km/h 66% 0 mm 550 W/m2
11:04 20.9 °C 14.3 °C 1019.5 hPa Calm   1.6 km/h 65.8% 0 mm 540 W/m2
11:09 21.2 °C 14.2 °C 1019.5 hPa Calm     64.3% 0 mm 496 W/m2
11:14 21.4 °C 14.3 °C 1019.2 hPa Calm     63.6% 0 mm 468 W/m2
11:19 21.6 °C 13.9 °C 1019.2 hPa Calm     61.7% 0 mm 401 W/m2
11:24 21.6 °C 13.7 °C 1019.5 hPa Calm     60.8% 0 mm 434 W/m2
11:29 21.7 °C 14.3 °C 1019.5 hPa Calm     62.6% 0 mm 443 W/m2
11:34 21.9 °C 14.3 °C 1019.5 hPa Calm     62% 0 mm 399 W/m2
11:39 22.1 °C 14.3 °C 1019.5 hPa Calm     61.1% 0 mm 599 W/m2
11:44 22.3 °C 14.2 °C 1019.5 hPa Calm     60.4% 0 mm 599 W/m2
11:49 22.4 °C 14.4 °C 1019.5 hPa Calm     60.5% 0 mm 512 W/m2
11:54 22.6 °C 15.1 °C 1019.9 hPa Calm     62.4% 0 mm 454 W/m2
11:59 22.8 °C 14.9 °C 1019.9 hPa NNW 0.8 km/h 4.8 km/h 61.4% 0 mm 432 W/m2
12:00 22.8 °C 14.7 °C 1019.9 hPa Calm   4.8 km/h 60% 0 mm 323 W/m2
12:09 22.9 °C 14.9 °C 1019.9 hPa Calm     60.7% 0 mm 311 W/m2
12:14 22.9 °C 14.9 °C 1019.9 hPa Calm     60.5% 0 mm 304 W/m2
12:19 22.9 °C 14.8 °C 1019.9 hPa NNW 0.5 km/h 4.8 km/h 60.3% 0 mm 295 W/m2
12:24 22.9 °C 14.9 °C 1020.2 hPa NNW 0.2 km/h 4.8 km/h 60.9% 0 mm 323 W/m2
12:29 22.9 °C 15.2 °C 1019.9 hPa NNW 0.6 km/h 4.8 km/h 62.1% 0 mm 369 W/m2
12:34 22.9 °C 15.1 °C 1019.9 hPa NNW 0.3 km/h 4.8 km/h 61.4% 0 mm 364 W/m2
12:39 22.9 °C 15.2 °C 1019.9 hPa NNW 0.5 km/h 4.8 km/h 61.5% 0 mm 334 W/m2
12:44 22.9 °C 15.1 °C 1019.9 hPa Calm   4.8 km/h 61.4% 0 mm 295 W/m2
12:49 22.9 °C 14.9 °C 1019.9 hPa Calm   4.8 km/h 60.7% 0 mm 253 W/m2
12:54 22.8 °C 14.5 °C 1019.9 hPa Calm   4.8 km/h 59.2% 0 mm 250 W/m2
12:59 22.8 °C 15.3 °C 1019.9 hPa NNW 0.2 km/h 4.8 km/h 62.5% 0 mm 253 W/m2
13:04 22.8 °C 15.2 °C 1019.9 hPa Calm   4.8 km/h 62.4% 0 mm 278 W/m2
13:09 22.8 °C 15.3 °C 1019.9 hPa NNW 0.5 km/h 4.8 km/h 62.7% 0 mm 272 W/m2
13:14 22.8 °C 15.5 °C 1019.9 hPa NNW 0.2 km/h 4.8 km/h 63.4% 0 mm 269 W/m2
13:19 22.8 °C 15.6 °C 1019.9 hPa Calm   4.8 km/h 64% 0 mm 272 W/m2
13:24 22.7 °C 15.4 °C 1019.9 hPa Calm   4.8 km/h 63.3% 0 mm 257 W/m2
13:29 22.7 °C 15.9 °C 1019.9 hPa Calm   4.8 km/h 65.6% 0 mm 248 W/m2
13:34 22.7 °C 15.5 °C 1019.9 hPa Calm   4.8 km/h 63.9% 0 mm 301 W/m2
13:39 22.8 °C 15.7 °C 1019.5 hPa Calm   1.6 km/h 64.5% 0 mm 315 W/m2
13:44 22.8 °C 15.9 °C 1019.5 hPa Calm   1.6 km/h 65.2% 0 mm 316 W/m2
13:49 22.8 °C 15.8 °C 1019.5 hPa Calm   1.6 km/h 64.3% 0 mm 318 W/m2
13:54 22.9 °C 16 °C 1019.2 hPa Calm   1.6 km/h 65.2% 0 mm 336 W/m2
13:59 23 °C 15.7 °C 1019.2 hPa Calm   1.6 km/h 63.6% 0 mm 327 W/m2
14:04 22.9 °C 15.1 °C 1019.2 hPa Calm   1.6 km/h 61.4% 0 mm 381 W/m2
14:09 22.9 °C 15.4 °C 1019.2 hPa Calm     62.6% 0 mm 455 W/m2
14:14 23.1 °C 15.5 °C 1019.2 hPa Calm     62.3% 0 mm 457 W/m2
14:19 23.2 °C 15.7 °C 1018.8 hPa Calm     62.5% 0 mm 385 W/m2
14:24 23.3 °C 15.6 °C 1018.8 hPa NNW 0.5 km/h 4.8 km/h 61.5% 0 mm 304 W/m2
14:29 23.3 °C 15 °C 1018.8 hPa Calm   4.8 km/h 59.5% 0 mm 257 W/m2
14:34 23.3 °C 15.4 °C 1018.8 hPa Calm   4.8 km/h 60.9% 0 mm 237 W/m2
14:39 23.4 °C 15.8 °C 1018.5 hPa Calm     62.4% 0 mm 241 W/m2
14:44 23.4 °C 15.4 °C 1018.5 hPa Calm     60.8% 0 mm 230 W/m2
14:49 23.4 °C 15.4 °C 1018.5 hPa Calm   1.6 km/h 60.7% 0 mm 216 W/m2
14:54 23.3 °C 15.3 °C 1018.5 hPa Calm   1.6 km/h 60.6% 0 mm 199 W/m2
14:59 23.3 °C 15.5 °C 1018.5 hPa NNW 0.2 km/h 3.2 km/h 61.7% 0 mm 171 W/m2
15:04 23.3 °C 15.5 °C 1018.5 hPa NNW 0.3 km/h 4.8 km/h 61.6% 0 mm 142 W/m2
15:09 23.3 °C 15.7 °C 1018.5 hPa Calm   4.8 km/h 62.5% 0 mm 158 W/m2
15:14 23.3 °C 15.6 °C 1018.5 hPa Calm   4.8 km/h 61.8% 0 mm 169 W/m2
15:19 23.3 °C 15.4 °C 1018.5 hPa Calm   4.8 km/h 61.4% 0 mm 179 W/m2
15:24 23.3 °C 15.4 °C 1018.5 hPa Calm   4.8 km/h 61.1% 0 mm 151 W/m2
15:29 23.3 °C 14.8 °C 1018.2 hPa Calm   4.8 km/h 59.1% 0 mm 128 W/m2
15:34 23.2 °C 14.7 °C 1018.5 hPa Calm   4.8 km/h 58.9% 0 mm 114 W/m2
15:39 23.2 °C 14.4 °C 1018.5 hPa Calm     57.6% 0 mm 116 W/m2
15:44 23.2 °C 14.7 °C 1018.5 hPa Calm     58.9% 0 mm 121 W/m2
15:49 23.2 °C 15.1 °C 1018.2 hPa Calm     60.2% 0 mm 107 W/m2
15:54 23.1 °C 15 °C 1018.5 hPa Calm     60.4% 0 mm 102 W/m2
15:59 23.1 °C 15 °C 1018.5 hPa Calm     60.4% 0 mm 120 W/m2
16:00 23.1 °C 15.4 °C 1018.2 hPa Calm     62% 0 mm 120 W/m2
16:09 23 °C 14.4 °C 1018.2 hPa Calm     58.6% 0 mm 158 W/m2
16:14 23.1 °C 14.8 °C 1018.2 hPa Calm     60% 0 mm 181 W/m2
16:19 23.1 °C 15.6 °C 1018.2 hPa Calm     62.6% 0 mm 204 W/m2
16:24 23.2 °C 16.4 °C 1018.2 hPa Calm     65.5% 0 mm 200 W/m2
16:29 23.2 °C 16.3 °C 1018.2 hPa Calm     65.1% 0 mm 183 W/m2
16:34 23.2 °C 16 °C 1018.2 hPa Calm     64% 0 mm 151 W/m2
16:39 23.2 °C 16.3 °C 1018.2 hPa Calm     65.1% 0 mm 148 W/m2
16:44 23.2 °C 16.6 °C 1018.2 hPa Calm     66.3% 0 mm 118 W/m2
16:49 23.2 °C 16.7 °C 1018.2 hPa Calm     66.8% 0 mm 105 W/m2
16:54 23.2 °C 16.9 °C 1018.2 hPa Calm     67.8% 0 mm 76 W/m2
16:59 23.1 °C 16.4 °C 1018.2 hPa Calm     66.3% 0 mm 58 W/m2
17:04 23.1 °C 16.4 °C 1018.2 hPa Calm     66.1% 0 mm 53 W/m2
17:09 23 °C 16.4 °C 1018.2 hPa Calm   1.6 km/h 66.3% 0 mm 51 W/m2
17:14 22.9 °C 16.7 °C 1018.2 hPa Calm   1.6 km/h 67.8% 0 mm 42 W/m2
17:19 22.8 °C 16.6 °C 1018.5 hPa Calm   1.6 km/h 67.6% 0 mm 40 W/m2
17:24 22.7 °C 16.3 °C 1018.5 hPa Calm   1.6 km/h 67.1% 0 mm 47 W/m2
17:29 22.6 °C 16.3 °C 1018.5 hPa Calm   1.6 km/h 67.5% 0 mm 60 W/m2
17:34 22.4 °C 16.3 °C 1018.5 hPa Calm   1.6 km/h 68% 0 mm 65 W/m2
17:39 22.4 °C 16.2 °C 1018.2 hPa Calm     68% 0 mm 65 W/m2
17:44 22.3 °C 16.3 °C 1018.2 hPa Calm     68.9% 0 mm 62 W/m2
17:49 22.2 °C 16.1 °C 1018.2 hPa Calm     68.3% 0 mm 62 W/m2
17:54 22.2 °C 15.9 °C 1018.2 hPa NNW 0.2 km/h 3.2 km/h 67.6% 0 mm 53 W/m2
17:59 22.2 °C 15.9 °C 1018.5 hPa Calm   3.2 km/h 67.7% 0 mm 58 W/m2
18:04 22.2 °C 16.3 °C 1018.2 hPa Calm   3.2 km/h 69.6% 0 mm 58 W/m2
18:09 22.2 °C 16.3 °C 1018.2 hPa Calm     69.4% 0 mm 56 W/m2
18:14 22.2 °C 16.2 °C 1018.2 hPa Calm     69.1% 0 mm 47 W/m2
18:19 22.1 °C 16.1 °C 1018.2 hPa Calm     68.5% 0 mm 49 W/m2
18:24 22.1 °C 15.2 °C 1018.2 hPa Calm     64.9% 0 mm 44 W/m2
18:29 22 °C 14.8 °C 1018.2 hPa Calm     63.8% 0 mm 39 W/m2
18:34 22.1 °C 16.2 °C 1018.2 hPa Calm     69.2% 0 mm 32 W/m2
18:39 22.1 °C 16.4 °C 1018.2 hPa Calm     70.4% 0 mm 30 W/m2
18:44 22.1 °C 16.6 °C 1018.2 hPa Calm     71% 0 mm 30 W/m2
18:49 22 °C 16.7 °C 1018.2 hPa Calm     71.7% 0 mm 32 W/m2
18:54 21.9 °C 16.7 °C 1018.2 hPa Calm     72% 0 mm 49 W/m2
18:59 21.9 °C 16.6 °C 1018.2 hPa Calm     71.8% 0 mm 53 W/m2
19:04 21.8 °C 16.6 °C 1018.2 hPa Calm     72% 0 mm 49 W/m2
19:09 21.7 °C 16.5 °C 1018.2 hPa Calm     72.1% 0 mm 32 W/m2
19:14 21.7 °C 16.7 °C 1018.2 hPa Calm     73% 0 mm 25 W/m2
19:19 21.7 °C 16.7 °C 1018.2 hPa Calm     73% 0 mm 26 W/m2
19:24 21.7 °C 16.7 °C 1018.2 hPa Calm     73.1% 0 mm 26 W/m2
19:29 21.6 °C 16.8 °C 1018.2 hPa Calm     73.9% 0 mm 19 W/m2
19:34 21.6 °C 16.6 °C 1018.2 hPa Calm     73% 0 mm 16 W/m2
20:09 21.2 °C 16.2 °C 1018.2 hPa Calm     73% 0 mm 0 W/m2
20:14 21.1 °C 15.8 °C 1018.2 hPa Calm     71.8% 0 mm 0 W/m2
20:19 21 °C 15.6 °C 1018.2 hPa Calm     71% 0 mm 0 W/m2
20:24 21 °C 15.7 °C 1018.2 hPa Calm     71.5% 0 mm 0 W/m2
20:29 20.9 °C 15.7 °C 1018.2 hPa Calm     72% 0 mm 0 W/m2
20:34 20.9 °C 15.7 °C 1018.2 hPa Calm     72% 0 mm 0 W/m2
20:39 20.8 °C 15.6 °C 1018.2 hPa Calm     72% 0 mm 0 W/m2
20:44 20.8 °C 15.6 °C 1018.2 hPa Calm     71.9% 0 mm 0 W/m2
20:49 20.7 °C 15.3 °C 1018.2 hPa Calm     71.1% 0 mm 0 W/m2
20:54 20.7 °C 15.5 °C 1018.2 hPa Calm     72% 0 mm 0 W/m2
20:59 20.7 °C 15.4 °C 1018.2 hPa Calm     72% 0 mm 0 W/m2
21:04 20.7 °C 15.4 °C 1018.2 hPa Calm     72% 0 mm 0 W/m2
21:09 20.7 °C 15.4 °C 1018.2 hPa Calm     72% 0 mm 0 W/m2
21:14 20.6 °C 15.4 °C 1018.2 hPa Calm     72% 0 mm 0 W/m2
21:19 20.6 °C 15.3 °C 1018.2 hPa Calm     72% 0 mm 0 W/m2
21:24 20.5 °C 15.3 °C 1018.5 hPa Calm     71.9% 0 mm 0 W/m2
21:29 20.4 °C 15.2 °C 1018.5 hPa Calm     71.6% 0 mm 0 W/m2
21:30 20.4 °C 15.2 °C 1018.5 hPa Calm     72% 0 mm 0 W/m2
22:00 20.2 °C 15 °C 1018.5 hPa Calm     72% 0 mm 0 W/m2
22:30 19.9 °C 15.6 °C 1018.8 hPa Calm     76% 0 mm 0 W/m2
23:00 19.3 °C 15.3 °C 1018.5 hPa Calm     78% 0 mm 0 W/m2
23:30 18.8 °C 15.5 °C 1018.5 hPa Calm     81% 0 mm 0 W/m2
Hartford County Weather
Compliments of Weather Underground - 2 mb